Terminal Aerodrome Forecast
Issued by NWS Wilmington, OH

Current Version | Previous Version | Text Only | Print | Product List | Glossary Off
Versions: 1 2 3 4 5 6 7 8 9 10 11 12 13 14 15 16 17 18 19 20 21 22 23 24 25 26 27 28 29 30 31

000
FTUS41 KILN 170900 AAA
TAFDAY
TAF AMD
KDAY 170918Z 1709/1806 27012G20KT P6SM VCSH OVC011
      TEMPO 1711/1714 BKN009
     FM171400 27013G20KT P6SM OVC015
     FM172300 28010KT P6SM OVC018=

USA.gov is the U.S. government's official web portal to all federal, state and local government web resources and services.